METAR AND TAF INFORMATION
METAR FOR KBML
ADDS - METARS form results

(0359 UTC 07 October 2022)
Data provider http://aviationweather.gov/metar/data/
 
METAR text: KBML 070352Z AUTO 00000KT 10SM CLR 09/08 A2993 RMK AO2 SLP137 T00940083
Conditions at: KBML (BERLIN , NH, US) observed 0352 UTC 07 October 2022
Temperature: 9.4°C (49°F)
Dewpoint: 8.3°C (47°F) [RH = 93%]
Pressure (altimeter): 29.93 inches Hg (1013.6 mb)
[Sea-level pressure: 1013.7 mb]
Winds: calm
Visibility: 10 or more miles (16+ km)
Ceiling: at least 12,000 feet AGL
Clouds: sky clear below 12,000 feet AGL
Weather: automated observation with no human augmentation;
there may or may not be significant weather present at this time

 AIRPORT MAP

 RUNWAY INFORMATION
Runway 18 Runway length 5200 ft Runway width 100 ft
Runway elevation 1158 ft Runway displaced threshold 0 ft Runway heading 164
Runway 36 Runway length 5200 ft Runway width 100 ft
Runway elevation 1130 ft Runway displaced threshold 0 ft Runway heading 344

 AIRPORT FREQUENCIES
Type ASOS Name ASOS Frequency 135.175 MHZ
Type RDO Name BANGOR RDO Frequency 122.35 MHZ
Type UNIC Name CTAF/UNICO Frequency 122.7 MHZ

 AIRPORT NEAR NAVIGATION AIDS



Powered by Virtual Airlines Manager [v2.6.2]